createdAt,value
2022-09-24T00:06:27.251Z,10.37
2022-09-24T00:20:39.493Z,10.28
2022-09-24T00:34:52.177Z,10.12
2022-09-24T00:49:05.280Z,9.99
2022-09-24T01:03:18.108Z,9.9
2022-09-24T01:17:30.236Z,9.73
2022-09-24T01:31:42.168Z,9.48
2022-09-24T01:45:53.297Z,9.08
2022-09-24T02:00:05.047Z,8.86
2022-09-24T02:14:16.581Z,8.67
2022-09-24T02:28:27.679Z,8.41
2022-09-24T02:42:39.550Z,8.14
2022-09-24T02:56:50.934Z,8
2022-09-24T03:11:02.434Z,7.89
2022-09-24T03:25:14.586Z,8.06
2022-09-24T03:39:28.778Z,8.2
2022-09-24T03:53:38.106Z,8.19
2022-09-24T04:07:52.741Z,8.26
2022-09-24T04:22:01.584Z,8.1
2022-09-24T04:36:11.273Z,7.89
2022-09-24T04:50:24.364Z,7.68
2022-09-24T05:04:34.905Z,7.71
2022-09-24T05:18:47.606Z,7.87
2022-09-24T05:33:01.290Z,8.12
2022-09-24T05:47:13.871Z,8.3
2022-09-24T06:01:27.637Z,8.6
2022-09-24T06:15:40.618Z,9.02
2022-09-24T06:29:54.726Z,9.6
2022-09-24T06:44:09.682Z,9.92
2022-09-24T06:46:59.784Z,10.07
2022-09-24T06:56:35.383Z,10.09
2022-09-24T06:58:22.801Z,10.18
2022-09-24T07:06:07.464Z,10.34
2022-09-24T07:12:36.622Z,10.37
2022-09-24T07:15:43.700Z,10.62
2022-09-24T07:25:16.528Z,10.73
2022-09-24T07:34:56.325Z,10.83
2022-09-24T07:44:27.741Z,11.06
2022-09-24T07:54:00.541Z,11.28
2022-09-24T07:55:04.588Z,11.32
2022-09-24T07:56:07.032Z,11.39
2022-09-24T07:57:09.514Z,11.46
2022-09-24T08:06:46.686Z,11.54
2022-09-24T08:07:46.514Z,11.57
2022-09-24T08:08:50.450Z,11.62
2022-09-24T08:09:52.812Z,11.67
2022-09-24T08:10:55.369Z,11.72
2022-09-24T08:11:57.796Z,11.75
2022-09-24T08:13:00.271Z,11.80
2022-09-24T08:14:04.290Z,11.83
2022-09-24T08:15:06.627Z,11.84
2022-09-24T08:16:09.144Z,11.86
2022-09-24T08:17:13.151Z,11.89
2022-09-24T08:18:15.534Z,11.93
2022-09-24T08:19:19.637Z,11.96
2022-09-24T08:20:23.517Z,11.98
2022-09-24T08:29:53.979Z,12.07
2022-09-24T08:30:57.465Z,12.11
2022-09-24T08:32:01.453Z,12.17
2022-09-24T08:33:03.793Z,12.24
2022-09-24T08:34:06.221Z,12.29
2022-09-24T08:35:08.672Z,12.34
2022-09-24T08:36:11.132Z,12.36
2022-09-24T08:37:13.674Z,12.39
2022-09-24T08:38:17.698Z,12.41
2022-09-24T08:39:21.604Z,12.44
2022-09-24T08:40:24.036Z,12.48
2022-09-24T08:42:28.881Z,12.50
2022-09-24T08:43:31.351Z,12.53
2022-09-24T08:44:35.284Z,12.55
2022-09-24T08:45:37.613Z,12.58
2022-09-24T08:46:41.734Z,12.62
2022-09-24T08:56:12.445Z,12.59
2022-09-24T08:58:17.399Z,12.63
2022-09-24T09:07:52.638Z,12.87
2022-09-24T09:09:06.611Z,12.96
2022-09-24T09:09:59.213Z,13.04
2022-09-24T09:11:01.634Z,13.15
2022-09-24T09:12:04.065Z,13.24
2022-09-24T09:13:06.516Z,13.33
2022-09-24T09:14:10.566Z,13.42
2022-09-24T09:15:16.682Z,13.49
2022-09-24T09:16:20.507Z,13.59
2022-09-24T09:17:24.566Z,13.67
2022-09-24T09:18:26.867Z,13.7
2022-09-24T09:20:41.504Z,13.84
2022-09-24T09:21:34.302Z,13.90
2022-09-24T09:22:38.448Z,13.94
2022-09-24T09:23:42.503Z,14.01
2022-09-24T09:24:44.712Z,14.05
2022-09-24T09:25:47.229Z,14.13
2022-09-24T09:26:52.239Z,14.20
2022-09-24T09:27:54.488Z,14.25
2022-09-24T09:28:56.999Z,14.31
2022-09-24T09:29:59.486Z,14.36
2022-09-24T09:31:03.662Z,14.43
2022-09-24T09:32:05.934Z,14.48
2022-09-24T09:33:08.408Z,14.54
2022-09-24T09:34:10.987Z,14.59
2022-09-24T09:35:13.335Z,14.62
2022-09-24T09:36:15.830Z,14.67
2022-09-24T09:37:23.443Z,14.71
2022-09-24T09:38:22.185Z,14.76
2022-09-24T09:39:26.234Z,14.81
2022-09-24T09:40:32.049Z,14.86
2022-09-24T09:41:32.523Z,14.91
2022-09-24T09:42:34.959Z,14.96
2022-09-24T09:43:37.395Z,14.99
2022-09-24T09:44:41.485Z,15.05
2022-09-24T09:45:43.866Z,15.10
2022-09-24T09:46:46.463Z,15.13
2022-09-24T09:47:51.422Z,15.17
2022-09-24T09:48:53.658Z,15.22
2022-09-24T09:49:56.203Z,15.28
2022-09-24T09:50:59.958Z,15.30
2022-09-24T09:52:04.961Z,15.33
2022-09-24T09:53:11.030Z,15.38
2022-09-24T09:54:18.773Z,15.44
2022-09-24T09:55:20.921Z,15.52
2022-09-24T09:56:23.347Z,15.56
2022-09-24T09:57:25.792Z,15.58
2022-09-24T09:58:28.280Z,15.61
2022-09-24T09:59:30.736Z,15.63
2022-09-24T10:00:33.132Z,15.66
2022-09-24T10:01:35.832Z,15.65
2022-09-24T10:02:38.177Z,15.67
2022-09-24T10:03:40.565Z,15.65
2022-09-24T10:04:42.965Z,15.68
2022-09-24T10:05:45.451Z,15.70
2022-09-24T10:06:47.884Z,15.72
2022-09-24T10:07:50.369Z,15.73
2022-09-24T10:08:52.848Z,15.75
2022-09-24T10:09:55.297Z,15.79
2022-09-24T10:10:57.785Z,15.80
2022-09-24T10:12:01.870Z,15.84
2022-09-24T10:13:05.763Z,15.88
2022-09-24T10:14:09.817Z,15.91
2022-09-24T10:15:12.067Z,15.95
2022-09-24T10:16:14.588Z,15.97
2022-09-24T10:17:16.974Z,16.00
2022-09-24T10:18:19.530Z,16.03
2022-09-24T10:19:23.549Z,16.04
2022-09-24T10:20:28.410Z,16.07
2022-09-24T10:21:30.739Z,16.11
2022-09-24T10:22:33.060Z,16.13
2022-09-24T10:23:35.492Z,16.14
2022-09-24T10:24:39.583Z,16.19
2022-09-24T10:25:43.512Z,16.21
2022-09-24T10:26:47.415Z,16.24
2022-09-24T10:28:52.201Z,16.25
2022-09-24T10:29:54.692Z,16.26
2022-09-24T10:30:59.768Z,16.28
2022-09-24T10:33:05.850Z,16.30
2022-09-24T10:34:08.370Z,16.33
2022-09-24T10:36:14.778Z,16.36
2022-09-24T10:37:17.470Z,16.37
2022-09-24T10:38:21.465Z,16.39
2022-09-24T10:39:28.020Z,16.40
2022-09-24T10:40:30.262Z,16.42
2022-09-24T10:41:32.736Z,16.45
2022-09-24T10:42:36.777Z,16.50
2022-09-24T10:43:39.158Z,16.57
2022-09-24T10:44:41.642Z,16.63
2022-09-24T10:45:44.167Z,16.72
2022-09-24T10:46:46.878Z,16.81
2022-09-24T10:47:50.797Z,16.88
2022-09-24T10:48:53.133Z,16.94
2022-09-24T10:49:57.245Z,17.02
2022-09-24T10:51:01.273Z,17.11
2022-09-24T10:52:03.591Z,17.18
2022-09-24T10:53:06.030Z,17.24
2022-09-24T10:54:08.626Z,17.32
2022-09-24T10:55:11.005Z,17.38
2022-09-24T10:56:13.511Z,17.42
2022-09-24T10:57:16.024Z,17.41
2022-09-24T10:58:18.715Z,17.40
2022-09-24T10:59:22.783Z,17.43
2022-09-24T11:00:25.220Z,17.41
2022-09-24T11:02:30.205Z,17.44
2022-09-24T11:03:32.857Z,17.46
2022-09-24T11:04:38.867Z,17.48
2022-09-24T11:05:37.728Z,17.51
2022-09-24T11:06:40.202Z,17.54
2022-09-24T11:07:42.653Z,17.56
2022-09-24T11:08:45.219Z,17.59
2022-09-24T11:09:47.520Z,17.61
2022-09-24T11:10:50.027Z,17.63
2022-09-24T11:11:52.410Z,17.66
2022-09-24T11:12:56.600Z,17.69
2022-09-24T11:13:58.958Z,17.68
2022-09-24T11:15:01.367Z,17.69
2022-09-24T11:16:03.857Z,17.72
2022-09-24T11:17:06.238Z,17.73
2022-09-24T11:18:08.687Z,17.77
2022-09-24T11:19:11.161Z,17.80
2022-09-24T11:20:13.764Z,17.82
2022-09-24T11:21:16.040Z,17.83
2022-09-24T11:22:18.504Z,17.86
2022-09-24T11:23:20.971Z,17.87
2022-09-24T11:24:23.427Z,17.92
2022-09-24T11:25:25.939Z,17.94
2022-09-24T11:26:28.388Z,17.98
2022-09-24T11:27:30.933Z,18.01
2022-09-24T11:28:35.011Z,18.04
2022-09-24T11:30:39.831Z,18.06
2022-09-24T11:31:42.397Z,18.08
2022-09-24T11:33:48.859Z,18.12
2022-09-24T11:34:51.201Z,18.14
2022-09-24T11:35:53.743Z,18.16
2022-09-24T11:36:56.167Z,18.17
2022-09-24T11:40:06.135Z,18.19
2022-09-24T11:41:08.466Z,18.21
2022-09-24T11:42:10.960Z,18.22
2022-09-24T11:44:15.882Z,18.21
2022-09-24T11:48:28.350Z,18.23
2022-09-24T11:49:30.762Z,18.26
2022-09-24T11:50:33.238Z,18.29
2022-09-24T11:51:37.322Z,18.31
2022-09-24T11:52:41.264Z,18.32
2022-09-24T11:53:43.770Z,18.35
2022-09-24T11:54:46.503Z,18.38
2022-09-24T11:55:50.033Z,18.41
2022-09-24T11:56:52.825Z,18.38
2022-09-24T11:57:55.540Z,18.40
2022-09-24T11:58:58.201Z,18.44
2022-09-24T12:00:00.840Z,18.45
2022-09-24T12:01:05.097Z,18.51
2022-09-24T12:02:09.365Z,18.56
2022-09-24T12:03:11.619Z,18.60
2022-09-24T12:04:15.603Z,18.59
2022-09-24T12:05:18.042Z,18.61
2022-09-24T12:06:20.463Z,18.57
2022-09-24T12:07:24.604Z,18.52
2022-09-24T12:08:28.496Z,18.53
2022-09-24T12:09:30.947Z,18.55
2022-09-24T12:10:33.483Z,18.57
2022-09-24T12:12:39.981Z,18.58
2022-09-24T12:13:44.010Z,18.59
2022-09-24T12:14:48.015Z,18.64
2022-09-24T12:15:52.134Z,18.66
2022-09-24T12:16:54.520Z,18.65
2022-09-24T12:17:56.983Z,18.69
2022-09-24T12:18:59.465Z,18.70
2022-09-24T12:20:01.875Z,18.69
2022-09-24T12:21:05.990Z,18.73
2022-09-24T12:22:08.414Z,18.70
2022-09-24T12:24:15.893Z,18.75
2022-09-24T12:25:18.219Z,18.76
2022-09-24T12:26:20.746Z,18.80
2022-09-24T12:28:25.768Z,18.83
2022-09-24T12:29:30.822Z,18.86
2022-09-24T12:30:33.159Z,18.88
2022-09-24T12:32:38.218Z,18.89
2022-09-24T12:33:42.547Z,18.90
2022-09-24T12:34:45.177Z,18.91
2022-09-24T12:35:50.371Z,18.99
2022-09-24T12:36:56.879Z,19.06
2022-09-24T12:37:56.677Z,19.09
2022-09-24T12:38:59.208Z,19.14
2022-09-24T12:40:01.649Z,19.17
2022-09-24T12:41:05.706Z,19.21
2022-09-24T12:42:08.092Z,19.26
2022-09-24T12:43:10.538Z,19.29
2022-09-24T12:44:18.397Z,19.27
2022-09-24T12:45:18.657Z,19.33
2022-09-24T12:46:21.349Z,19.37
2022-09-24T12:47:23.680Z,19.41
2022-09-24T12:48:27.732Z,19.36
2022-09-24T12:49:30.193Z,19.39
2022-09-24T12:50:32.613Z,19.41
2022-09-24T12:51:35.116Z,19.45
2022-09-24T12:52:37.634Z,19.50
2022-09-24T12:53:40.042Z,19.48
2022-09-24T12:54:44.108Z,19.44
2022-09-24T12:55:46.413Z,19.46
2022-09-24T12:56:48.919Z,19.45
2022-09-24T12:57:52.948Z,19.48
2022-09-24T12:58:55.338Z,19.50
2022-09-24T12:59:57.824Z,19.47
2022-09-24T13:01:01.309Z,19.46
2022-09-24T13:02:03.871Z,19.45
2022-09-24T13:03:06.410Z,19.42
2022-09-24T13:05:12.233Z,19.39
2022-09-24T13:06:14.679Z,19.35
2022-09-24T13:07:17.169Z,19.37
2022-09-24T13:08:19.795Z,19.35
2022-09-24T13:10:24.706Z,19.34
2022-09-24T13:11:27.164Z,19.37
2022-09-24T13:12:29.672Z,19.36
2022-09-24T13:14:34.640Z,19.35
2022-09-24T13:15:37.253Z,19.38
2022-09-24T13:16:39.658Z,19.37
2022-09-24T13:17:43.739Z,19.39
2022-09-24T13:18:46.195Z,19.40
2022-09-24T13:21:53.633Z,19.38
2022-09-24T13:22:56.069Z,19.34
2022-09-24T13:23:58.569Z,19.33
2022-09-24T13:25:01.045Z,19.29
2022-09-24T13:26:03.565Z,19.28
2022-09-24T13:27:07.649Z,19.27
2022-09-24T13:28:11.670Z,19.21
2022-09-24T13:31:20.579Z,19.17
2022-09-24T13:32:24.649Z,19.13
2022-09-24T13:33:28.620Z,19.09
2022-09-24T13:34:32.560Z,19.07
2022-09-24T13:35:35.014Z,19.05
2022-09-24T13:36:39.009Z,19.02
2022-09-24T13:38:45.456Z,19.00
2022-09-24T13:39:49.448Z,18.99
2022-09-24T13:40:51.967Z,18.97
2022-09-24T13:42:56.807Z,18.94
2022-09-24T13:43:59.300Z,18.89
2022-09-24T13:45:04.137Z,18.87
2022-09-24T13:46:04.201Z,18.86
2022-09-24T13:47:07.696Z,18.84
2022-09-24T13:48:10.086Z,18.83
2022-09-24T13:49:14.218Z,18.79
2022-09-24T13:50:17.697Z,18.76
2022-09-24T13:51:21.665Z,18.72
2022-09-24T13:52:25.631Z,18.73
2022-09-24T13:53:29.575Z,18.71
2022-09-24T13:57:43.725Z,18.68
2022-09-24T13:59:51.816Z,18.70
2022-09-24T14:00:54.052Z,18.68
2022-09-24T14:01:56.534Z,18.70
2022-09-24T14:02:58.960Z,18.71
2022-09-24T14:04:02.994Z,18.70
2022-09-24T14:05:05.321Z,18.69
2022-09-24T14:06:07.787Z,18.65
2022-09-24T14:10:17.607Z,18.61
2022-09-24T14:12:26.562Z,18.58
2022-09-24T14:13:28.954Z,18.55
2022-09-24T14:15:33.939Z,18.52
2022-09-24T14:16:36.330Z,18.50
2022-09-24T14:17:38.852Z,18.49
2022-09-24T14:18:41.334Z,18.45
2022-09-24T14:19:43.849Z,18.46
2022-09-24T14:20:46.309Z,18.43
2022-09-24T14:21:48.948Z,18.41
2022-09-24T14:22:53.972Z,18.38
2022-09-24T14:23:57.908Z,18.41
2022-09-24T14:26:03.789Z,18.43
2022-09-24T14:28:08.744Z,18.42
2022-09-24T14:32:19.807Z,18.40
2022-09-24T14:33:22.148Z,18.41
2022-09-24T14:35:29.949Z,18.40
2022-09-24T14:38:37.342Z,18.39
2022-09-24T14:40:42.229Z,18.40
2022-09-24T14:41:44.644Z,18.41
2022-09-24T14:42:48.835Z,18.39
2022-09-24T14:43:50.973Z,18.42
2022-09-24T14:45:55.955Z,18.44
2022-09-24T14:46:58.504Z,18.42
2022-09-24T14:48:00.865Z,18.43
2022-09-24T14:49:04.949Z,18.44
2022-09-24T14:51:12.441Z,18.48
2022-09-24T14:52:14.976Z,18.49
2022-09-24T14:53:17.404Z,18.47
2022-09-24T14:55:23.503Z,18.46
2022-09-24T14:56:25.847Z,18.47
2022-09-24T15:05:59.467Z,18.20
2022-09-24T15:07:01.903Z,18.22
2022-09-24T15:08:04.445Z,18.24
2022-09-24T15:09:07.098Z,18.26
2022-09-24T15:10:09.519Z,18.28
2022-09-24T15:11:13.891Z,18.32
2022-09-24T15:12:16.230Z,18.35
2022-09-24T15:13:18.840Z,18.38
2022-09-24T15:14:22.225Z,18.40
2022-09-24T15:17:31.375Z,18.43
2022-09-24T15:18:39.431Z,18.44
2022-09-24T15:19:41.545Z,18.46
2022-09-24T15:20:43.999Z,18.49
2022-09-24T15:22:48.865Z,18.50
2022-09-24T15:25:57.928Z,18.49
2022-09-24T15:27:00.406Z,18.50
2022-09-24T15:30:09.436Z,18.55
2022-09-24T15:31:11.992Z,18.54
2022-09-24T15:32:14.428Z,18.55
2022-09-24T15:33:16.923Z,18.54
2022-09-24T15:34:20.196Z,18.53
2022-09-24T15:35:23.465Z,18.54
2022-09-24T15:37:30.171Z,18.53
2022-09-24T15:38:32.533Z,18.55
2022-09-24T15:39:35.011Z,18.56
2022-09-24T15:40:40.170Z,18.53
2022-09-24T15:41:43.863Z,18.54
2022-09-24T15:43:48.693Z,18.51
2022-09-24T15:44:51.143Z,18.50
2022-09-24T15:46:58.651Z,18.46
2022-09-24T15:50:07.263Z,18.44
2022-09-24T15:51:13.917Z,18.43
2022-09-24T15:52:13.152Z,18.42
2022-09-24T15:54:19.541Z,18.41
2022-09-24T15:55:23.605Z,18.40
2022-09-24T15:56:28.201Z,18.38
2022-09-24T15:57:31.451Z,18.37
2022-09-24T15:58:34.664Z,18.38
2022-09-24T16:00:39.578Z,18.36
2022-09-24T16:01:42.203Z,18.35
2022-09-24T16:03:50.183Z,18.34
2022-09-24T16:04:52.518Z,18.33
2022-09-24T16:05:55.021Z,18.31
2022-09-24T16:06:57.497Z,18.29
2022-09-24T16:08:00.034Z,18.28
2022-09-24T16:09:02.692Z,18.26
2022-09-24T16:10:06.722Z,18.25
2022-09-24T16:11:10.833Z,18.24
2022-09-24T16:12:13.183Z,18.22
2022-09-24T16:13:17.817Z,18.19
2022-09-24T16:14:18.140Z,18.18
2022-09-24T16:15:20.511Z,18.17
2022-09-24T16:16:22.979Z,18.13
2022-09-24T16:17:25.482Z,18.12
2022-09-24T16:18:27.984Z,18.09
2022-09-24T16:19:32.098Z,18.04
2022-09-24T16:20:34.849Z,18.03
2022-09-24T16:21:37.644Z,18.01
2022-09-24T16:22:40.039Z,17.99
2022-09-24T16:23:45.072Z,17.96
2022-09-24T16:24:49.958Z,17.94
2022-09-24T16:25:52.223Z,17.91
2022-09-24T16:26:57.285Z,17.90
2022-09-24T16:27:30.923Z,17.76
2022-09-24T16:33:15.121Z,17.75
2022-09-24T16:34:17.410Z,17.71
2022-09-24T16:35:19.965Z,17.69
2022-09-24T16:36:22.469Z,17.66
2022-09-24T16:37:25.121Z,17.63
2022-09-24T16:38:27.574Z,17.60
2022-09-24T16:39:30.146Z,17.57
2022-09-24T16:40:34.285Z,17.55
2022-09-24T16:41:36.403Z,17.53
2022-09-24T16:41:42.505Z,17.27
2022-09-24T16:55:56.874Z,16.86
2022-09-24T17:08:01.821Z,16.53
2022-09-24T17:18:37.389Z,16.10
2022-09-24T17:24:19.140Z,15.71
2022-09-24T17:28:11.925Z,15.32
2022-09-24T17:37:45.205Z,14.71
2022-09-24T17:38:26.465Z,14.63
2022-09-24T17:47:17.109Z,14.29
2022-09-24T17:52:40.773Z,14
2022-09-24T17:56:51.233Z,13.93
2022-09-24T18:06:30.641Z,13.72
2022-09-24T18:15:59.295Z,13.56
2022-09-24T18:20:59.474Z,13.29
2022-09-24T18:35:12.361Z,13.02
2022-09-24T18:49:25.415Z,12.9
2022-09-24T19:03:38.079Z,12.77
2022-09-24T19:17:51.606Z,12.71
2022-09-24T19:32:04.869Z,12.56
2022-09-24T19:46:17.616Z,12.47
2022-09-24T20:00:29.675Z,12.45
2022-09-24T20:14:43.580Z,12.51
2022-09-24T20:28:55.501Z,12.5
2022-09-24T20:43:09.161Z,12.51
2022-09-24T20:57:19.392Z,12.52
2022-09-24T21:11:31.247Z,12.51
2022-09-24T21:25:59.695Z,12.5
2022-09-24T21:39:57.236Z,12.45
2022-09-24T21:54:11.897Z,12.4
2022-09-24T22:08:20.069Z,12.31
2022-09-24T22:22:33.435Z,12.26
2022-09-24T22:36:46.240Z,12.25
2022-09-24T22:50:58.845Z,12.23
2022-09-24T23:05:12.850Z,12.21
2022-09-24T23:47:50.087Z,12.2
